CST,Max TemperatureF,Mean TemperatureF,Min TemperatureF,Max Dew PointF,MeanDew PointF,Min DewpointF,Max Humidity, Mean Humidity, Min Humidity, Max Sea Level PressureIn, Mean Sea Level PressureIn, Min Sea Level PressureIn, Max VisibilityMiles, Mean VisibilityMiles, Min VisibilityMiles, Max Wind SpeedMPH, Mean Wind SpeedMPH, Max Gust SpeedMPH,PrecipitationIn, CloudCover, Events, WindDirDegrees
2014-2-1,66,53,40,58,39,28,78,67,56,30.02,29.86,29.72,10,8,6,31,15,39,0.00,8,,334
2014-2-2,40,35,30,31,27,24,89,75,60,30.27,30.15,30.02,10,8,2,28,17,33,0.14,8,Rain,353
2014-2-3,43,37,30,34,29,23,79,71,62,30.29,30.17,30.02,10,10,9,14,8,17,0.00,8,,35
2014-2-4,48,43,38,40,37,32,92,79,66,30.13,29.96,29.88,10,7,2,21,9,26,0.17,7,Rain,106
2014-2-5,38,30,22,30,18,11,82,68,53,30.55,30.42,30.15,10,10,10,29,19,35,0.00,7,,352
2014-2-6,25,21,17,16,13,8,80,71,62,30.60,30.52,30.43,10,6,1,22,12,26,0.05,8,Snow,5
2014-2-7,32,28,23,27,22,15,78,71,63,30.42,30.30,30.23,10,8,3,12,5,13,T,8,Snow,133
2014-2-8,55,44,32,38,33,27,89,70,51,30.22,30.12,29.99,10,6,2,16,10,19,0.00,6,,160
2014-2-9,47,42,36,41,39,34,100,88,76,30.14,30.07,30.01,4,2,0,20,9,24,T,8,Fog-Rain,74
2014-2-10,36,33,30,34,30,27,96,91,85,30.29,30.23,30.14,10,2,1,22,15,29,0.02,8,Rain,7
2014-2-11,36,32,28,27,24,21,85,72,59,30.35,30.28,30.24,10,9,2,21,12,24,T,8,Rain,9
2014-2-12,51,41,30,30,26,22,78,60,41,30.24,30.14,30.05,10,10,7,15,9,22,0.00,3,,313
2014-2-13,67,49,30,38,33,26,85,59,32,30.05,29.95,29.85,10,10,9,16,8,21,0.00,4,,175
2014-2-14,72,57,42,38,31,13,82,47,11,30.09,29.89,29.72,10,10,10,33,15,39,0.00,3,,313
2014-2-15,70,54,37,35,30,26,64,43,22,30.15,30.06,29.98,10,10,10,24,9,30,0.00,5,,156
2014-2-16,76,61,45,57,51,35,93,72,50,30.04,29.97,29.84,10,8,0,25,13,34,T,6,Rain,166
2014-2-17,75,62,49,58,36,21,93,54,14,30.13,30.03,29.84,10,9,5,25,12,32,0.00,7,,346
2014-2-18,82,63,43,58,44,28,73,52,30,30.09,29.93,29.81,10,10,10,24,10,30,0.00,4,,185
2014-2-19,70,65,60,61,60,57,93,82,70,29.90,29.80,29.61,10,6,0,29,14,39,T,7,Rain,171
2014-2-20,74,59,44,61,42,21,81,54,26,30.10,29.82,29.58,10,10,6,32,19,40,0.00,5,,273
2014-2-21,67,51,34,29,24,16,70,44,18,30.17,30.07,29.99,10,10,10,20,10,31,0.00,3,,190
2014-2-22,75,61,47,52,41,29,63,49,35,29.99,29.89,29.79,10,10,10,25,15,30,0.00,5,,183
2014-2-23,71,60,48,57,48,37,93,66,39,30.12,29.97,29.83,10,10,6,24,13,28,0.00,6,,328
2014-2-24,56,49,41,46,40,36,76,68,59,30.17,30.09,30.04,10,10,10,12,6,14,0.00,7,,37
2014-2-25,55,49,42,45,40,26,80,61,42,30.14,30.08,30.03,10,7,1,25,13,32,0.03,8,Rain,29
2014-2-26,43,38,32,30,17,13,62,48,33,30.33,30.23,30.17,10,10,10,31,15,37,0.00,5,,355
2014-2-27,56,41,25,30,21,15,69,48,26,30.18,30.04,29.85,10,10,10,17,7,22,0.00,1,,185
2014-2-28,84,64,44,49,37,28,76,45,14,29.83,29.73,29.64,10,10,10,25,14,31,0.00,2,,183